sensor_id;sensor_type;location;lat;lon;timestamp;temperature;humidity
18717;DHT22;9487;50.892;6.906;2023-05-10T00:01:17;14.00;99.90
18717;DHT22;9487;50.892;6.906;2023-05-10T00:03:44;14.00;99.90
18717;DHT22;9487;50.892;6.906;2023-05-10T00:06:12;14.00;99.90
18717;DHT22;9487;50.892;6.906;2023-05-10T00:08:39;14.00;99.90
18717;DHT22;9487;50.892;6.906;2023-05-10T00:11:06;14.00;99.90
18717;DHT22;9487;50.892;6.906;2023-05-10T00:13:33;14.10;99.90
18717;DHT22;9487;50.892;6.906;2023-05-10T00:16:00;14.10;99.90
18717;DHT22;9487;50.892;6.906;2023-05-10T00:18:27;14.10;99.90
18717;DHT22;9487;50.892;6.906;2023-05-10T00:20:54;14.20;99.90
18717;DHT22;9487;50.892;6.906;2023-05-10T00:23:22;14.10;99.90
18717;DHT22;9487;50.892;6.906;2023-05-10T00:25:48;14.10;99.90
18717;DHT22;9487;50.892;6.906;2023-05-10T00:28:16;14.10;99.90
18717;DHT22;9487;50.892;6.906;2023-05-10T00:30:44;14.10;99.90
18717;DHT22;9487;50.892;6.906;2023-05-10T00:33:11;14.10;99.90
18717;DHT22;9487;50.892;6.906;2023-05-10T00:35:38;14.10;99.90
18717;DHT22;9487;50.892;6.906;2023-05-10T00:38:05;14.10;99.90
18717;DHT22;9487;50.892;6.906;2023-05-10T00:40:35;14.10;99.90
18717;DHT22;9487;50.892;6.906;2023-05-10T00:43:02;14.10;99.90
18717;DHT22;9487;50.892;6.906;2023-05-10T00:45:29;14.10;99.90
18717;DHT22;9487;50.892;6.906;2023-05-10T00:47:57;14.00;99.90
18717;DHT22;9487;50.892;6.906;2023-05-10T00:50:25;14.10;99.90
18717;DHT22;9487;50.892;6.906;2023-05-10T00:52:52;14.00;99.90
18717;DHT22;9487;50.892;6.906;2023-05-10T00:55:21;14.10;99.90
18717;DHT22;9487;50.892;6.906;2023-05-10T00:57:49;14.00;99.90
18717;DHT22;9487;50.892;6.906;2023-05-10T01:00:17;14.10;99.90
18717;DHT22;9487;50.892;6.906;2023-05-10T01:02:44;14.00;99.90
18717;DHT22;9487;50.892;6.906;2023-05-10T01:05:12;14.00;99.90
18717;DHT22;9487;50.892;6.906;2023-05-10T01:07:40;14.00;99.90
18717;DHT22;9487;50.892;6.906;2023-05-10T01:10:08;14.00;99.90
18717;DHT22;9487;50.892;6.906;2023-05-10T01:12:37;14.00;99.90
18717;DHT22;9487;50.892;6.906;2023-05-10T01:15:07;14.00;99.90
18717;DHT22;9487;50.892;6.906;2023-05-10T01:17:35;14.00;99.90
18717;DHT22;9487;50.892;6.906;2023-05-10T01:20:05;14.00;99.90
18717;DHT22;9487;50.892;6.906;2023-05-10T01:23:07;14.00;99.90
18717;DHT22;9487;50.892;6.906;2023-05-10T01:26:07;14.00;99.90
18717;DHT22;9487;50.892;6.906;2023-05-10T01:28:57;14.00;99.90
18717;DHT22;9487;50.892;6.906;2023-05-10T01:34:53;14.00;99.90
18717;DHT22;9487;50.892;6.906;2023-05-10T01:37:27;14.00;99.90
18717;DHT22;9487;50.892;6.906;2023-05-10T01:40:00;14.00;99.90
18717;DHT22;9487;50.892;6.906;2023-05-10T01:42:35;14.00;99.90
18717;DHT22;9487;50.892;6.906;2023-05-10T01:45:07;14.00;99.90
18717;DHT22;9487;50.892;6.906;2023-05-10T01:47:41;14.00;99.90
18717;DHT22;9487;50.892;6.906;2023-05-10T01:50:15;14.00;99.90
18717;DHT22;9487;50.892;6.906;2023-05-10T01:52:47;14.00;99.90
18717;DHT22;9487;50.892;6.906;2023-05-10T01:55:16;14.00;99.90
18717;DHT22;9487;50.892;6.906;2023-05-10T01:57:44;14.10;99.90
18717;DHT22;9487;50.892;6.906;2023-05-10T02:00:13;14.10;99.90
18717;DHT22;9487;50.892;6.906;2023-05-10T02:02:45;14.10;99.90
18717;DHT22;9487;50.892;6.906;2023-05-10T02:05:15;14.10;99.90
18717;DHT22;9487;50.892;6.906;2023-05-10T02:07:43;14.10;99.90
18717;DHT22;9487;50.892;6.906;2023-05-10T02:10:10;14.10;99.90
18717;DHT22;9487;50.892;6.906;2023-05-10T02:12:47;14.10;99.90
18717;DHT22;9487;50.892;6.906;2023-05-10T02:15:20;14.10;99.90
18717;DHT22;9487;50.892;6.906;2023-05-10T02:17:47;14.10;99.90
18717;DHT22;9487;50.892;6.906;2023-05-10T02:20:17;14.10;99.90
18717;DHT22;9487;50.892;6.906;2023-05-10T02:22:47;14.10;99.90
18717;DHT22;9487;50.892;6.906;2023-05-10T02:25:15;14.10;99.90
18717;DHT22;9487;50.892;6.906;2023-05-10T02:27:44;14.10;99.90
18717;DHT22;9487;50.892;6.906;2023-05-10T02:30:13;14.10;99.90
18717;DHT22;9487;50.892;6.906;2023-05-10T02:32:41;14.20;99.90
18717;DHT22;9487;50.892;6.906;2023-05-10T02:35:10;14.20;99.90
18717;DHT22;9487;50.892;6.906;2023-05-10T02:37:40;14.20;99.90
18717;DHT22;9487;50.892;6.906;2023-05-10T02:40:08;14.20;99.90
18717;DHT22;9487;50.892;6.906;2023-05-10T02:42:37;14.20;99.90
18717;DHT22;9487;50.892;6.906;2023-05-10T02:45:10;14.20;99.90
18717;DHT22;9487;50.892;6.906;2023-05-10T02:47:38;14.10;99.90
18717;DHT22;9487;50.892;6.906;2023-05-10T02:50:06;14.20;99.90
18717;DHT22;9487;50.892;6.906;2023-05-10T02:52:41;14.20;99.90
18717;DHT22;9487;50.892;6.906;2023-05-10T02:55:11;14.20;99.90
18717;DHT22;9487;50.892;6.906;2023-05-10T02:57:43;14.20;99.90
18717;DHT22;9487;50.892;6.906;2023-05-10T03:00:11;14.20;99.90
18717;DHT22;9487;50.892;6.906;2023-05-10T03:02:38;14.20;99.90
18717;DHT22;9487;50.892;6.906;2023-05-10T03:05:05;14.10;99.90
18717;DHT22;9487;50.892;6.906;2023-05-10T03:07:33;14.10;99.90
18717;DHT22;9487;50.892;6.906;2023-05-10T03:10:02;13.90;99.90
18717;DHT22;9487;50.892;6.906;2023-05-10T03:12:38;13.80;99.90
18717;DHT22;9487;50.892;6.906;2023-05-10T03:15:13;13.70;99.90
18717;DHT22;9487;50.892;6.906;2023-05-10T03:17:50;13.70;99.90
18717;DHT22;9487;50.892;6.906;2023-05-10T03:20:22;13.80;99.90
18717;DHT22;9487;50.892;6.906;2023-05-10T03:22:55;13.90;99.90
18717;DHT22;9487;50.892;6.906;2023-05-10T03:25:25;14.00;99.90
18717;DHT22;9487;50.892;6.906;2023-05-10T03:27:52;13.90;99.90
18717;DHT22;9487;50.892;6.906;2023-05-10T03:30:20;13.90;99.90
18717;DHT22;9487;50.892;6.906;2023-05-10T03:32:47;14.10;99.90
18717;DHT22;9487;50.892;6.906;2023-05-10T03:35:14;14.10;99.90
18717;DHT22;9487;50.892;6.906;2023-05-10T03:37:41;14.10;99.90
18717;DHT22;9487;50.892;6.906;2023-05-10T03:40:10;14.10;99.90
18717;DHT22;9487;50.892;6.906;2023-05-10T03:42:38;14.00;99.90
18717;DHT22;9487;50.892;6.906;2023-05-10T03:45:08;13.80;99.90
18717;DHT22;9487;50.892;6.906;2023-05-10T03:47:35;13.90;99.90
18717;DHT22;9487;50.892;6.906;2023-05-10T03:50:02;13.90;99.90
18717;DHT22;9487;50.892;6.906;2023-05-10T03:52:29;14.00;99.90
18717;DHT22;9487;50.892;6.906;2023-05-10T03:54:56;14.10;99.90
18717;DHT22;9487;50.892;6.906;2023-05-10T03:57:23;14.10;99.90
18717;DHT22;9487;50.892;6.906;2023-05-10T03:59:52;14.20;99.90
18717;DHT22;9487;50.892;6.906;2023-05-10T04:02:18;14.20;99.90
18717;DHT22;9487;50.892;6.906;2023-05-10T04:04:45;14.30;99.90
18717;DHT22;9487;50.892;6.906;2023-05-10T04:07:13;14.20;99.90
18717;DHT22;9487;50.892;6.906;2023-05-10T04:09:40;14.20;99.90
18717;DHT22;9487;50.892;6.906;2023-05-10T04:12:10;14.20;99.90
18717;DHT22;9487;50.892;6.906;2023-05-10T04:14:37;14.10;99.90
18717;DHT22;9487;50.892;6.906;2023-05-10T04:17:07;14.10;99.90
18717;DHT22;9487;50.892;6.906;2023-05-10T04:19:34;14.10;99.90
18717;DHT22;9487;50.892;6.906;2023-05-10T04:22:02;14.00;99.90
18717;DHT22;9487;50.892;6.906;2023-05-10T04:24:29;13.90;99.90
18717;DHT22;9487;50.892;6.906;2023-05-10T04:26:56;13.90;99.90
18717;DHT22;9487;50.892;6.906;2023-05-10T04:29:23;14.00;99.90
18717;DHT22;9487;50.892;6.906;2023-05-10T04:31:50;13.90;99.90
18717;DHT22;9487;50.892;6.906;2023-05-10T04:34:20;14.00;99.90
18717;DHT22;9487;50.892;6.906;2023-05-10T04:36:47;13.90;99.90
18717;DHT22;9487;50.892;6.906;2023-05-10T04:39:15;14.00;99.90
18717;DHT22;9487;50.892;6.906;2023-05-10T04:41:42;14.00;99.90
18717;DHT22;9487;50.892;6.906;2023-05-10T04:44:11;14.00;99.90
18717;DHT22;9487;50.892;6.906;2023-05-10T04:46:39;14.00;99.90
18717;DHT22;9487;50.892;6.906;2023-05-10T04:49:07;14.00;99.90
18717;DHT22;9487;50.892;6.906;2023-05-10T04:51:36;14.00;99.90
18717;DHT22;9487;50.892;6.906;2023-05-10T04:54:03;14.10;99.90
18717;DHT22;9487;50.892;6.906;2023-05-10T04:56:31;14.00;99.90
18717;DHT22;9487;50.892;6.906;2023-05-10T04:59:00;14.00;99.90
18717;DHT22;9487;50.892;6.906;2023-05-10T05:01:27;14.00;99.90
18717;DHT22;9487;50.892;6.906;2023-05-10T05:03:54;14.00;99.90
18717;DHT22;9487;50.892;6.906;2023-05-10T05:06:21;13.90;99.90
18717;DHT22;9487;50.892;6.906;2023-05-10T05:08:49;13.90;99.90
18717;DHT22;9487;50.892;6.906;2023-05-10T05:11:16;13.80;99.90
18717;DHT22;9487;50.892;6.906;2023-05-10T05:13:43;13.80;99.90
18717;DHT22;9487;50.892;6.906;2023-05-10T05:16:11;13.90;99.90
18717;DHT22;9487;50.892;6.906;2023-05-10T05:18:38;14.00;99.90
18717;DHT22;9487;50.892;6.906;2023-05-10T05:21:13;14.00;99.90
18717;DHT22;9487;50.892;6.906;2023-05-10T05:23:41;14.00;99.90
18717;DHT22;9487;50.892;6.906;2023-05-10T05:26:09;14.00;99.90
18717;DHT22;9487;50.892;6.906;2023-05-10T05:28:36;14.00;99.90
18717;DHT22;9487;50.892;6.906;2023-05-10T05:31:03;13.90;99.90
18717;DHT22;9487;50.892;6.906;2023-05-10T05:33:29;13.90;99.90
18717;DHT22;9487;50.892;6.906;2023-05-10T05:35:56;14.00;99.90
18717;DHT22;9487;50.892;6.906;2023-05-10T05:38:23;13.90;99.90
18717;DHT22;9487;50.892;6.906;2023-05-10T05:40:50;14.00;99.90
18717;DHT22;9487;50.892;6.906;2023-05-10T05:43:18;14.00;99.90
18717;DHT22;9487;50.892;6.906;2023-05-10T05:45:45;14.00;99.90
18717;DHT22;9487;50.892;6.906;2023-05-10T05:48:12;14.10;99.90
18717;DHT22;9487;50.892;6.906;2023-05-10T05:50:38;14.20;99.90
18717;DHT22;9487;50.892;6.906;2023-05-10T05:53:05;14.20;99.90
18717;DHT22;9487;50.892;6.906;2023-05-10T05:55:32;14.20;99.90
18717;DHT22;9487;50.892;6.906;2023-05-10T05:58:00;14.20;99.90
18717;DHT22;9487;50.892;6.906;2023-05-10T06:00:29;14.30;99.90
18717;DHT22;9487;50.892;6.906;2023-05-10T06:02:55;14.30;99.90
18717;DHT22;9487;50.892;6.906;2023-05-10T06:05:22;14.20;99.90
18717;DHT22;9487;50.892;6.906;2023-05-10T06:07:49;14.20;99.90
18717;DHT22;9487;50.892;6.906;2023-05-10T06:10:16;14.20;99.90
18717;DHT22;9487;50.892;6.906;2023-05-10T06:12:43;14.30;99.90
18717;DHT22;9487;50.892;6.906;2023-05-10T06:15:10;14.30;99.90
18717;DHT22;9487;50.892;6.906;2023-05-10T06:17:39;14.30;99.90
18717;DHT22;9487;50.892;6.906;2023-05-10T06:20:07;14.30;99.90
18717;DHT22;9487;50.892;6.906;2023-05-10T06:22:34;14.30;99.90
18717;DHT22;9487;50.892;6.906;2023-05-10T06:25:03;14.40;99.90
18717;DHT22;9487;50.892;6.906;2023-05-10T06:27:30;14.40;99.90
18717;DHT22;9487;50.892;6.906;2023-05-10T06:29:58;14.40;99.90
18717;DHT22;9487;50.892;6.906;2023-05-10T06:32:24;14.40;99.90
18717;DHT22;9487;50.892;6.906;2023-05-10T06:34:52;14.40;99.90
18717;DHT22;9487;50.892;6.906;2023-05-10T06:37:19;14.40;99.90
18717;DHT22;9487;50.892;6.906;2023-05-10T06:39:46;14.50;99.90
18717;DHT22;9487;50.892;6.906;2023-05-10T06:42:14;14.50;99.90
18717;DHT22;9487;50.892;6.906;2023-05-10T06:44:41;14.50;99.90
18717;DHT22;9487;50.892;6.906;2023-05-10T06:47:08;14.50;99.90
18717;DHT22;9487;50.892;6.906;2023-05-10T06:49:35;14.40;99.90
18717;DHT22;9487;50.892;6.906;2023-05-10T06:52:04;14.40;99.90
18717;DHT22;9487;50.892;6.906;2023-05-10T06:54:30;14.30;99.90
18717;DHT22;9487;50.892;6.906;2023-05-10T06:56:57;14.30;99.90
18717;DHT22;9487;50.892;6.906;2023-05-10T06:59:24;14.30;99.90
18717;DHT22;9487;50.892;6.906;2023-05-10T07:01:51;14.40;99.90
18717;DHT22;9487;50.892;6.906;2023-05-10T07:04:17;14.40;99.90
18717;DHT22;9487;50.892;6.906;2023-05-10T07:06:44;14.40;99.90
18717;DHT22;9487;50.892;6.906;2023-05-10T07:09:13;14.40;99.90
18717;DHT22;9487;50.892;6.906;2023-05-10T07:11:40;14.40;99.90
18717;DHT22;9487;50.892;6.906;2023-05-10T07:14:07;14.40;99.90
18717;DHT22;9487;50.892;6.906;2023-05-10T07:16:33;14.30;99.90
18717;DHT22;9487;50.892;6.906;2023-05-10T07:19:00;14.20;99.90
18717;DHT22;9487;50.892;6.906;2023-05-10T07:21:27;14.20;99.90
18717;DHT22;9487;50.892;6.906;2023-05-10T07:23:55;14.20;99.90
18717;DHT22;9487;50.892;6.906;2023-05-10T07:26:24;14.20;99.90
18717;DHT22;9487;50.892;6.906;2023-05-10T07:28:51;14.20;99.90
18717;DHT22;9487;50.892;6.906;2023-05-10T07:31:18;14.20;99.90
18717;DHT22;9487;50.892;6.906;2023-05-10T07:33:45;14.30;99.90
18717;DHT22;9487;50.892;6.906;2023-05-10T07:36:11;14.30;99.90
18717;DHT22;9487;50.892;6.906;2023-05-10T07:38:38;14.40;99.90
18717;DHT22;9487;50.892;6.906;2023-05-10T07:41:05;14.50;99.90
18717;DHT22;9487;50.892;6.906;2023-05-10T07:43:34;14.60;99.90
18717;DHT22;9487;50.892;6.906;2023-05-10T07:46:01;14.60;99.90
18717;DHT22;9487;50.892;6.906;2023-05-10T07:48:28;14.70;99.90
18717;DHT22;9487;50.892;6.906;2023-05-10T07:50:54;14.70;99.90
18717;DHT22;9487;50.892;6.906;2023-05-10T07:53:21;14.80;99.90
18717;DHT22;9487;50.892;6.906;2023-05-10T07:55:50;14.80;99.90
18717;DHT22;9487;50.892;6.906;2023-05-10T07:58:17;14.90;99.90
18717;DHT22;9487;50.892;6.906;2023-05-10T08:00:45;14.90;99.90
18717;DHT22;9487;50.892;6.906;2023-05-10T08:03:12;15.00;99.90
18717;DHT22;9487;50.892;6.906;2023-05-10T08:05:39;15.20;99.90
18717;DHT22;9487;50.892;6.906;2023-05-10T08:08:06;15.30;99.90
18717;DHT22;9487;50.892;6.906;2023-05-10T08:10:32;15.30;99.90
18717;DHT22;9487;50.892;6.906;2023-05-10T08:12:59;15.40;99.90
18717;DHT22;9487;50.892;6.906;2023-05-10T08:15:26;15.30;99.90
18717;DHT22;9487;50.892;6.906;2023-05-10T08:17:54;15.40;99.90
18717;DHT22;9487;50.892;6.906;2023-05-10T08:20:22;15.50;99.90
18717;DHT22;9487;50.892;6.906;2023-05-10T08:22:48;15.50;99.90
18717;DHT22;9487;50.892;6.906;2023-05-10T08:25:15;15.50;99.90
18717;DHT22;9487;50.892;6.906;2023-05-10T08:27:42;15.50;99.90
18717;DHT22;9487;50.892;6.906;2023-05-10T08:30:10;15.50;99.90
18717;DHT22;9487;50.892;6.906;2023-05-10T08:32:37;15.50;99.90
18717;DHT22;9487;50.892;6.906;2023-05-10T08:35:06;15.40;99.90
18717;DHT22;9487;50.892;6.906;2023-05-10T08:37:33;15.40;99.90
18717;DHT22;9487;50.892;6.906;2023-05-10T08:39:59;15.20;99.90
18717;DHT22;9487;50.892;6.906;2023-05-10T08:42:30;15.20;99.90
18717;DHT22;9487;50.892;6.906;2023-05-10T08:44:57;15.20;99.90
18717;DHT22;9487;50.892;6.906;2023-05-10T08:47:25;15.10;99.90
18717;DHT22;9487;50.892;6.906;2023-05-10T08:49:53;15.20;99.90
18717;DHT22;9487;50.892;6.906;2023-05-10T08:52:23;15.20;99.90
18717;DHT22;9487;50.892;6.906;2023-05-10T08:54:51;15.30;99.90
18717;DHT22;9487;50.892;6.906;2023-05-10T08:57:19;15.30;99.90
18717;DHT22;9487;50.892;6.906;2023-05-10T08:59:46;15.30;99.90
18717;DHT22;9487;50.892;6.906;2023-05-10T09:02:13;15.40;99.90
18717;DHT22;9487;50.892;6.906;2023-05-10T09:04:40;15.40;99.90
18717;DHT22;9487;50.892;6.906;2023-05-10T09:07:07;15.50;99.90
18717;DHT22;9487;50.892;6.906;2023-05-10T09:09:36;15.60;99.90
18717;DHT22;9487;50.892;6.906;2023-05-10T09:12:04;15.50;99.90
18717;DHT22;9487;50.892;6.906;2023-05-10T09:14:34;15.80;99.90
18717;DHT22;9487;50.892;6.906;2023-05-10T09:17:01;15.90;99.90
18717;DHT22;9487;50.892;6.906;2023-05-10T09:19:28;15.90;99.90
18717;DHT22;9487;50.892;6.906;2023-05-10T09:21:55;16.10;99.90
18717;DHT22;9487;50.892;6.906;2023-05-10T09:24:25;16.30;99.90
18717;DHT22;9487;50.892;6.906;2023-05-10T09:26:56;16.40;99.90
18717;DHT22;9487;50.892;6.906;2023-05-10T09:29:23;16.30;99.90
18717;DHT22;9487;50.892;6.906;2023-05-10T09:31:51;16.00;99.90
18717;DHT22;9487;50.892;6.906;2023-05-10T09:34:22;15.90;99.90
18717;DHT22;9487;50.892;6.906;2023-05-10T09:36:56;15.70;1.00
18717;DHT22;9487;50.892;6.906;2023-05-10T09:39:30;15.50;1.00
18717;DHT22;9487;50.892;6.906;2023-05-10T09:42:01;15.60;1.00
18717;DHT22;9487;50.892;6.906;2023-05-10T09:44:29;15.60;1.00
18717;DHT22;9487;50.892;6.906;2023-05-10T09:46:56;15.60;1.00
18717;DHT22;9487;50.892;6.906;2023-05-10T09:49:23;15.40;1.00
18717;DHT22;9487;50.892;6.906;2023-05-10T09:52:00;15.30;1.00
18717;DHT22;9487;50.892;6.906;2023-05-10T09:54:28;15.30;1.00
18717;DHT22;9487;50.892;6.906;2023-05-10T09:56:55;15.10;1.00
18717;DHT22;9487;50.892;6.906;2023-05-10T09:59:25;15.20;1.00
18717;DHT22;9487;50.892;6.906;2023-05-10T10:01:53;15.00;1.00
18717;DHT22;9487;50.892;6.906;2023-05-10T10:04:22;15.00;1.00
18717;DHT22;9487;50.892;6.906;2023-05-10T10:06:59;15.10;99.90
18717;DHT22;9487;50.892;6.906;2023-05-10T10:09:27;15.20;99.90
18717;DHT22;9487;50.892;6.906;2023-05-10T10:11:54;15.40;1.00
18717;DHT22;9487;50.892;6.906;2023-05-10T10:14:22;15.30;1.00
18717;DHT22;9487;50.892;6.906;2023-05-10T10:16:50;15.30;1.00
18717;DHT22;9487;50.892;6.906;2023-05-10T10:19:18;15.30;1.00
18717;DHT22;9487;50.892;6.906;2023-05-10T10:21:45;15.30;1.00
18717;DHT22;9487;50.892;6.906;2023-05-10T10:24:12;15.40;1.00
18717;DHT22;9487;50.892;6.906;2023-05-10T10:26:39;15.80;1.00
18717;DHT22;9487;50.892;6.906;2023-05-10T10:29:16;16.10;1.00
18717;DHT22;9487;50.892;6.906;2023-05-10T10:31:48;16.20;99.90
18717;DHT22;9487;50.892;6.906;2023-05-10T10:34:26;16.30;99.90
18717;DHT22;9487;50.892;6.906;2023-05-10T10:36:55;16.20;99.90
18717;DHT22;9487;50.892;6.906;2023-05-10T10:39:22;16.10;99.90
18717;DHT22;9487;50.892;6.906;2023-05-10T10:41:51;16.00;99.90
18717;DHT22;9487;50.892;6.906;2023-05-10T10:44:30;15.90;99.90
18717;DHT22;9487;50.892;6.906;2023-05-10T10:47:03;16.10;1.00
18717;DHT22;9487;50.892;6.906;2023-05-10T10:49:33;16.20;1.00
18717;DHT22;9487;50.892;6.906;2023-05-10T10:52:14;16.10;99.90
18717;DHT22;9487;50.892;6.906;2023-05-10T10:54:41;16.20;99.90
18717;DHT22;9487;50.892;6.906;2023-05-10T10:57:11;16.30;99.90
18717;DHT22;9487;50.892;6.906;2023-05-10T10:59:41;16.30;14.50
18717;DHT22;9487;50.892;6.906;2023-05-10T11:02:09;16.20;99.90
18717;DHT22;9487;50.892;6.906;2023-05-10T11:04:44;16.20;99.90
18717;DHT22;9487;50.892;6.906;2023-05-10T11:07:18;16.30;99.90
18717;DHT22;9487;50.892;6.906;2023-05-10T11:09:47;16.30;99.90
18717;DHT22;9487;50.892;6.906;2023-05-10T11:12:14;16.30;99.90
18717;DHT22;9487;50.892;6.906;2023-05-10T11:14:40;16.10;15.00
18717;DHT22;9487;50.892;6.906;2023-05-10T11:17:23;15.80;99.90
18717;DHT22;9487;50.892;6.906;2023-05-10T11:20:08;15.90;1.00
18717;DHT22;9487;50.892;6.906;2023-05-10T11:22:49;16.20;99.90
18717;DHT22;9487;50.892;6.906;2023-05-10T11:25:17;16.30;95.20
18717;DHT22;9487;50.892;6.906;2023-05-10T11:27:44;16.40;99.30
18717;DHT22;9487;50.892;6.906;2023-05-10T11:30:12;16.20;71.40
18717;DHT22;9487;50.892;6.906;2023-05-10T11:32:40;16.20;1.00
18717;DHT22;9487;50.892;6.906;2023-05-10T11:35:10;16.30;1.00
18717;DHT22;9487;50.892;6.906;2023-05-10T11:37:40;16.20;1.00
18717;DHT22;9487;50.892;6.906;2023-05-10T11:40:10;16.30;1.00
18717;DHT22;9487;50.892;6.906;2023-05-10T11:42:37;16.40;1.00
18717;DHT22;9487;50.892;6.906;2023-05-10T11:45:06;16.50;1.00
18717;DHT22;9487;50.892;6.906;2023-05-10T11:47:33;16.50;1.00
18717;DHT22;9487;50.892;6.906;2023-05-10T11:50:01;16.70;1.00
18717;DHT22;9487;50.892;6.906;2023-05-10T11:52:29;16.60;1.00
18717;DHT22;9487;50.892;6.906;2023-05-10T11:55:01;16.60;1.00
18717;DHT22;9487;50.892;6.906;2023-05-10T11:57:28;16.30;1.00
18717;DHT22;9487;50.892;6.906;2023-05-10T11:59:57;16.60;1.00
18717;DHT22;9487;50.892;6.906;2023-05-10T12:02:24;16.80;1.00
18717;DHT22;9487;50.892;6.906;2023-05-10T12:04:51;16.90;1.00
18717;DHT22;9487;50.892;6.906;2023-05-10T12:07:18;17.00;99.90
18717;DHT22;9487;50.892;6.906;2023-05-10T12:10:02;17.10;99.90
18717;DHT22;9487;50.892;6.906;2023-05-10T12:12:36;17.30;99.90
18717;DHT22;9487;50.892;6.906;2023-05-10T12:15:05;17.50;99.90
18717;DHT22;9487;50.892;6.906;2023-05-10T12:17:32;17.70;1.00
18717;DHT22;9487;50.892;6.906;2023-05-10T12:19:59;17.70;1.00
18717;DHT22;9487;50.892;6.906;2023-05-10T12:22:39;17.70;99.90
18717;DHT22;9487;50.892;6.906;2023-05-10T12:25:08;17.40;1.00
18717;DHT22;9487;50.892;6.906;2023-05-10T12:27:35;17.20;1.00
18717;DHT22;9487;50.892;6.906;2023-05-10T12:30:03;17.40;11.40
18717;DHT22;9487;50.892;6.906;2023-05-10T12:32:40;17.50;99.90
18717;DHT22;9487;50.892;6.906;2023-05-10T12:35:07;17.50;1.00
18717;DHT22;9487;50.892;6.906;2023-05-10T12:37:35;17.40;94.70
18717;DHT22;9487;50.892;6.906;2023-05-10T12:40:08;17.40;1.00
18717;DHT22;9487;50.892;6.906;2023-05-10T12:42:36;17.00;1.00
18717;DHT22;9487;50.892;6.906;2023-05-10T12:45:04;16.90;99.90
18717;DHT22;9487;50.892;6.906;2023-05-10T12:47:32;16.90;1.00
18717;DHT22;9487;50.892;6.906;2023-05-10T12:50:00;17.10;1.00
18717;DHT22;9487;50.892;6.906;2023-05-10T12:52:27;17.50;99.90
18717;DHT22;9487;50.892;6.906;2023-05-10T12:54:54;17.70;1.00
18717;DHT22;9487;50.892;6.906;2023-05-10T12:57:22;17.50;1.00
18717;DHT22;9487;50.892;6.906;2023-05-10T12:59:49;17.60;99.90
18717;DHT22;9487;50.892;6.906;2023-05-10T13:02:16;17.60;7.40
18717;DHT22;9487;50.892;6.906;2023-05-10T13:04:48;17.70;1.00
18717;DHT22;9487;50.892;6.906;2023-05-10T13:07:15;17.90;28.90
18717;DHT22;9487;50.892;6.906;2023-05-10T13:09:42;17.80;1.00
18717;DHT22;9487;50.892;6.906;2023-05-10T13:12:09;17.90;99.90
18717;DHT22;9487;50.892;6.906;2023-05-10T13:14:37;18.00;1.00
18717;DHT22;9487;50.892;6.906;2023-05-10T13:17:06;17.60;99.90
18717;DHT22;9487;50.892;6.906;2023-05-10T13:19:32;17.70;99.90
18717;DHT22;9487;50.892;6.906;2023-05-10T13:21:59;18.00;99.90
18717;DHT22;9487;50.892;6.906;2023-05-10T13:24:26;18.00;1.00
18717;DHT22;9487;50.892;6.906;2023-05-10T13:26:53;17.90;1.00
18717;DHT22;9487;50.892;6.906;2023-05-10T13:29:19;17.90;1.00
18717;DHT22;9487;50.892;6.906;2023-05-10T13:31:49;17.70;99.90
18717;DHT22;9487;50.892;6.906;2023-05-10T13:34:16;17.70;99.90
18717;DHT22;9487;50.892;6.906;2023-05-10T13:36:46;17.70;99.90
18717;DHT22;9487;50.892;6.906;2023-05-10T13:39:12;17.70;1.00
18717;DHT22;9487;50.892;6.906;2023-05-10T13:41:39;17.70;99.90
18717;DHT22;9487;50.892;6.906;2023-05-10T13:44:06;17.50;99.90
18717;DHT22;9487;50.892;6.906;2023-05-10T13:46:33;17.50;99.90
18717;DHT22;9487;50.892;6.906;2023-05-10T13:49:03;17.50;1.00
18717;DHT22;9487;50.892;6.906;2023-05-10T13:51:29;17.50;1.00
18717;DHT22;9487;50.892;6.906;2023-05-10T13:53:57;17.80;99.90
18717;DHT22;9487;50.892;6.906;2023-05-10T13:56:24;18.10;1.00
18717;DHT22;9487;50.892;6.906;2023-05-10T13:58:50;18.30;1.00
18717;DHT22;9487;50.892;6.906;2023-05-10T14:01:17;18.60;1.00
18717;DHT22;9487;50.892;6.906;2023-05-10T14:03:44;18.10;99.90
18717;DHT22;9487;50.892;6.906;2023-05-10T14:06:12;18.10;1.00
18717;DHT22;9487;50.892;6.906;2023-05-10T14:08:39;18.40;99.10
18717;DHT22;9487;50.892;6.906;2023-05-10T14:11:06;18.50;1.00
18717;DHT22;9487;50.892;6.906;2023-05-10T14:13:33;18.30;1.00
18717;DHT22;9487;50.892;6.906;2023-05-10T14:16:00;18.40;1.00
18717;DHT22;9487;50.892;6.906;2023-05-10T14:18:28;18.60;99.90
18717;DHT22;9487;50.892;6.906;2023-05-10T14:20:55;18.60;99.90
18717;DHT22;9487;50.892;6.906;2023-05-10T14:23:23;18.70;99.90
18717;DHT22;9487;50.892;6.906;2023-05-10T14:25:51;18.90;1.00
18717;DHT22;9487;50.892;6.906;2023-05-10T14:28:18;19.20;1.00
18717;DHT22;9487;50.892;6.906;2023-05-10T14:30:46;19.40;1.00
18717;DHT22;9487;50.892;6.906;2023-05-10T14:33:13;18.90;99.90
18717;DHT22;9487;50.892;6.906;2023-05-10T14:35:39;18.60;1.00
18717;DHT22;9487;50.892;6.906;2023-05-10T14:38:06;18.80;10.70
18717;DHT22;9487;50.892;6.906;2023-05-10T14:40:34;18.80;1.00
18717;DHT22;9487;50.892;6.906;2023-05-10T14:43:01;18.80;1.00
18717;DHT22;9487;50.892;6.906;2023-05-10T14:45:28;18.40;1.00
18717;DHT22;9487;50.892;6.906;2023-05-10T14:47:55;18.40;99.90
18717;DHT22;9487;50.892;6.906;2023-05-10T14:50:22;17.90;1.00
18717;DHT22;9487;50.892;6.906;2023-05-10T14:52:49;18.30;1.00
18717;DHT22;9487;50.892;6.906;2023-05-10T14:55:16;18.70;1.00
18717;DHT22;9487;50.892;6.906;2023-05-10T14:57:44;19.00;1.00
18717;DHT22;9487;50.892;6.906;2023-05-10T15:00:13;19.20;99.90
18717;DHT22;9487;50.892;6.906;2023-05-10T15:02:42;19.00;1.00
18717;DHT22;9487;50.892;6.906;2023-05-10T15:05:08;19.00;99.90
18717;DHT22;9487;50.892;6.906;2023-05-10T15:07:35;18.90;1.00
18717;DHT22;9487;50.892;6.906;2023-05-10T15:10:03;18.80;1.00
18717;DHT22;9487;50.892;6.906;2023-05-10T15:12:30;18.80;99.90
18717;DHT22;9487;50.892;6.906;2023-05-10T15:14:58;18.70;1.00
18717;DHT22;9487;50.892;6.906;2023-05-10T15:17:25;18.70;1.00
18717;DHT22;9487;50.892;6.906;2023-05-10T15:19:52;18.70;99.90
18717;DHT22;9487;50.892;6.906;2023-05-10T15:22:19;18.60;1.00
18717;DHT22;9487;50.892;6.906;2023-05-10T15:24:46;18.80;1.00
18717;DHT22;9487;50.892;6.906;2023-05-10T15:27:13;18.90;1.00
18717;DHT22;9487;50.892;6.906;2023-05-10T15:29:40;19.00;99.90
18717;DHT22;9487;50.892;6.906;2023-05-10T15:32:08;18.60;1.00
18717;DHT22;9487;50.892;6.906;2023-05-10T15:34:35;18.60;99.90
18717;DHT22;9487;50.892;6.906;2023-05-10T15:37:02;18.80;1.00
18717;DHT22;9487;50.892;6.906;2023-05-10T15:39:29;19.00;99.90
18717;DHT22;9487;50.892;6.906;2023-05-10T15:41:56;18.80;1.00
18717;DHT22;9487;50.892;6.906;2023-05-10T15:44:22;18.70;1.00
18717;DHT22;9487;50.892;6.906;2023-05-10T15:46:49;18.70;1.00
18717;DHT22;9487;50.892;6.906;2023-05-10T15:49:17;18.50;1.00
18717;DHT22;9487;50.892;6.906;2023-05-10T15:51:44;19.00;1.00
18717;DHT22;9487;50.892;6.906;2023-05-10T15:54:11;19.00;1.00
18717;DHT22;9487;50.892;6.906;2023-05-10T15:56:38;18.90;1.00
18717;DHT22;9487;50.892;6.906;2023-05-10T15:59:05;18.80;99.90
18717;DHT22;9487;50.892;6.906;2023-05-10T16:01:33;18.60;91.20